Time;durP1;ratioP1;P1;durP2;ratioP2;P2;SDS_P1;SDS_P2;PMS_P1;PMS_P2;Temp;Humidity;BMP_temperature;BMP_pressure;BME280_temperature;BME280_humidity;BME280_pressure;Samples;Min_cycle;Max_cycle;Signal;HPM_P1;HPM_P2
2021/09/14 00:01:08;;;;;;;13.82;11.05;;;17.50;99.90;;;;;;5070064;28;20044;-76
2021/09/14 00:03:33;;;;;;;12.57;10.48;;;17.40;99.90;;;;;;5066586;28;20345;-75
2021/09/14 00:05:59;;;;;;;11.85;9.77;;;17.40;99.90;;;;;;5070247;28;20082;-76
2021/09/14 00:08:25;;;;;;;14.20;10.02;;;17.40;99.90;;;;;;5069067;28;20481;-76
2021/09/14 00:10:51;;;;;;;15.82;12.23;;;17.40;99.90;;;;;;5064554;28;20028;-76
2021/09/14 00:13:17;;;;;;;16.02;13.25;;;17.40;99.90;;;;;;5070790;28;20036;-76
2021/09/14 00:15:43;;;;;;;18.67;13.25;;;17.40;99.90;;;;;;5067537;28;20067;-76
2021/09/14 00:18:08;;;;;;;22.98;14.77;;;17.30;99.90;;;;;;5079709;28;20107;-75
2021/09/14 00:20:34;;;;;;;16.40;11.95;;;17.30;99.90;;;;;;5070802;28;20043;-75
2021/09/14 00:23:02;;;;;;;16.25;11.23;;;17.20;99.90;;;;;;5074766;28;20029;-75
2021/09/14 00:25:27;;;;;;;14.07;12.50;;;17.20;99.90;;;;;;5077294;28;20032;-76
2021/09/14 00:27:53;;;;;;;21.17;14.18;;;17.30;99.90;;;;;;5070400;28;20115;-75
2021/09/14 00:30:18;;;;;;;18.15;14.18;;;17.30;99.90;;;;;;5075518;28;20032;-76
2021/09/14 00:32:44;;;;;;;17.13;12.95;;;17.30;99.90;;;;;;5068596;28;20120;-75
2021/09/14 00:35:10;;;;;;;16.88;13.70;;;17.30;99.90;;;;;;5077243;28;20464;-76
2021/09/14 00:37:36;;;;;;;20.92;14.10;;;17.30;99.90;;;;;;5069372;28;20028;-76
2021/09/14 00:40:01;;;;;;;20.65;13.93;;;17.30;99.90;;;;;;5074979;28;20421;-76
2021/09/14 00:42:27;;;;;;;20.27;16.10;;;17.20;99.90;;;;;;5075051;28;20392;-76
2021/09/14 00:44:52;;;;;;;18.63;15.50;;;17.10;99.90;;;;;;5072757;28;20162;-76
2021/09/14 00:47:18;;;;;;;19.20;15.68;;;17.10;99.90;;;;;;5071391;28;20020;-76
2021/09/14 00:49:44;;;;;;;19.70;16.17;;;17.10;99.90;;;;;;5075672;28;20476;-76
2021/09/14 00:52:10;;;;;;;15.73;14.02;;;17.10;99.90;;;;;;5076934;28;20063;-75
2021/09/14 00:54:38;;;;;;;20.05;14.75;;;17.10;99.90;;;;;;5072999;28;20107;-75
2021/09/14 00:57:04;;;;;;;15.77;12.30;;;17.10;99.90;;;;;;5068493;28;20162;-75
2021/09/14 00:59:30;;;;;;;18.75;14.48;;;17.10;99.90;;;;;;5075295;28;20035;-75
2021/09/14 01:01:56;;;;;;;20.75;15.18;;;17.10;99.90;;;;;;5072647;28;20019;-75
2021/09/14 01:04:22;;;;;;;21.52;14.60;;;17.10;99.90;;;;;;5079989;28;20040;-76
2021/09/14 01:06:48;;;;;;;16.85;13.25;;;17.00;99.90;;;;;;5074017;28;20116;-75
2021/09/14 01:09:15;;;;;;;15.75;14.02;;;17.00;99.90;;;;;;5072066;28;20037;-75
2021/09/14 01:11:41;;;;;;;15.88;13.68;;;17.00;99.90;;;;;;5082120;28;20013;-75
2021/09/14 01:14:08;;;;;;;16.58;13.60;;;17.00;99.90;;;;;;5072816;28;20037;-75
2021/09/14 01:16:35;;;;;;;19.10;14.25;;;17.00;99.90;;;;;;5076124;28;20021;-75
2021/09/14 01:19:03;;;;;;;18.52;14.10;;;17.00;99.90;;;;;;5074379;28;20032;-76
2021/09/14 01:21:29;;;;;;;19.77;15.63;;;16.90;99.90;;;;;;5071596;28;20099;-75
2021/09/14 01:23:56;;;;;;;15.73;13.40;;;16.90;99.90;;;;;;5076328;28;20024;-75
2021/09/14 01:26:22;;;;;;;20.13;14.63;;;16.90;99.90;;;;;;5075932;28;20044;-75
2021/09/14 01:28:48;;;;;;;19.55;15.40;;;16.90;99.90;;;;;;5073311;28;20073;-75
2021/09/14 01:31:14;;;;;;;22.02;15.82;;;16.90;99.90;;;;;;5071846;28;20051;-75
2021/09/14 01:33:46;;;;;;;24.90;16.33;;;16.80;99.90;;;;;;5076528;28;20546;-75
2021/09/14 01:36:12;;;;;;;17.90;14.82;;;16.80;99.90;;;;;;5072018;28;20027;-75
2021/09/14 01:38:37;;;;;;;18.83;14.43;;;16.80;99.90;;;;;;5079024;28;20036;-75
2021/09/14 01:41:03;;;;;;;16.73;14.30;;;16.80;99.90;;;;;;5071744;28;20028;-75
2021/09/14 01:43:29;;;;;;;19.80;14.75;;;16.80;99.90;;;;;;5077225;28;20029;-75
2021/09/14 01:45:54;;;;;;;24.75;16.02;;;16.70;99.90;;;;;;5072207;28;20473;-75
2021/09/14 01:48:20;;;;;;;20.25;15.88;;;16.70;99.90;;;;;;5077172;28;20504;-75
2021/09/14 01:50:46;;;;;;;21.83;17.60;;;16.70;99.90;;;;;;5072131;28;21121;-75
2021/09/14 01:53:11;;;;;;;20.02;17.25;;;16.70;99.90;;;;;;5074252;28;20099;-75
2021/09/14 01:55:37;;;;;;;19.17;16.08;;;16.70;99.90;;;;;;5072438;28;20112;-75
2021/09/14 01:58:03;;;;;;;23.80;18.05;;;16.70;99.90;;;;;;5071101;28;20035;-75
2021/09/14 02:00:31;;;;;;;23.95;16.67;;;16.60;99.90;;;;;;5073292;28;20025;-75
2021/09/14 02:05:49;;;;;;;23.15;17.52;;;16.60;99.90;;;;;;5068476;28;20036;-75
2021/09/14 02:38:32;;;;;;;19.95;15.85;;;16.40;99.90;;;;;;5074583;28;20032;-75
2021/09/14 02:59:32;;;;;;;22.92;18.25;;;16.20;99.90;;;;;;5077356;28;20047;-75
2021/09/14 03:01:58;;;;;;;29.23;19.20;;;16.20;99.90;;;;;;5081392;28;20024;-75
2021/09/14 03:04:24;;;;;;;23.33;18.60;;;16.20;99.90;;;;;;5072973;28;20024;-75
2021/09/14 03:06:49;;;;;;;23.88;19.40;;;16.20;99.90;;;;;;5078618;28;20024;-75
2021/09/14 03:09:15;;;;;;;26.80;19.92;;;16.20;99.90;;;;;;5076740;28;20443;-75
2021/09/14 03:11:41;;;;;;;22.55;17.98;;;16.10;99.90;;;;;;5078025;28;20460;-75
2021/09/14 03:14:06;;;;;;;21.70;17.50;;;16.10;99.90;;;;;;5078271;28;20023;-75
2021/09/14 03:16:32;;;;;;;27.45;19.00;;;16.10;99.90;;;;;;5076033;28;20421;-75
2021/09/14 03:18:57;;;;;;;22.98;17.63;;;16.10;99.90;;;;;;5078296;28;20481;-75
2021/09/14 03:21:23;;;;;;;23.92;18.58;;;16.10;99.90;;;;;;5072855;28;20094;-75
2021/09/14 03:23:49;;;;;;;25.02;19.75;;;16.10;99.90;;;;;;5078881;28;20063;-75
2021/09/14 03:26:14;;;;;;;26.02;20.90;;;16.00;99.90;;;;;;5077649;28;20032;-75
2021/09/14 03:28:40;;;;;;;30.58;20.88;;;16.00;99.90;;;;;;5074450;28;20063;-75
2021/09/14 03:31:06;;;;;;;24.73;20.02;;;15.90;99.90;;;;;;5077797;28;20063;-75
2021/09/14 03:33:32;;;;;;;28.45;22.50;;;15.90;99.90;;;;;;5073493;28;20032;-75
2021/09/14 03:35:57;;;;;;;26.05;19.65;;;15.90;99.90;;;;;;5078923;28;20099;-75
2021/09/14 03:38:23;;;;;;;29.17;21.17;;;15.90;99.90;;;;;;5077296;28;20112;-75
2021/09/14 03:40:49;;;;;;;29.38;21.90;;;15.90;99.90;;;;;;5077169;28;20036;-75
2021/09/14 03:43:14;;;;;;;26.40;21.73;;;15.90;99.90;;;;;;5077614;28;20100;-75
2021/09/14 03:45:45;;;;;;;27.35;21.52;;;15.90;99.90;;;;;;5080996;28;20103;-75
2021/09/14 03:48:11;;;;;;;27.80;23.10;;;15.90;99.90;;;;;;5072244;28;20029;-75
2021/09/14 03:50:37;;;;;;;25.65;20.83;;;15.90;99.90;;;;;;5075916;28;20082;-75
2021/09/14 03:53:03;;;;;;;30.55;21.17;;;15.90;99.90;;;;;;5075853;28;20025;-75
2021/09/14 03:55:29;;;;;;;31.63;23.70;;;15.90;99.90;;;;;;5075574;28;20082;-75
2021/09/14 03:57:54;;;;;;;34.13;23.17;;;16.00;99.90;;;;;;5072855;28;20203;-75
2021/09/14 04:00:20;;;;;;;47.72;29.35;;;15.80;99.90;;;;;;5078941;28;20025;-75
2021/09/14 04:02:49;;;;;;;31.98;24.42;;;15.60;99.90;;;;;;5075529;28;20032;-75
2021/09/14 04:10:41;;;;;;;28.52;21.48;;;15.70;99.90;;;;;;5074751;28;20067;-74
2021/09/14 04:13:08;;;;;;;27.10;21.92;;;15.80;99.90;;;;;;5075044;28;20055;-75
2021/09/14 04:15:34;;;;;;;31.42;23.05;;;15.70;99.90;;;;;;5081611;28;20031;-75
2021/09/14 04:18:00;;;;;;;27.20;21.88;;;15.70;99.90;;;;;;5073614;28;20036;-75
2021/09/14 04:20:26;;;;;;;27.42;22.05;;;15.70;99.90;;;;;;5077247;28;20024;-74
2021/09/14 04:22:52;;;;;;;32.10;23.65;;;15.70;99.90;;;;;;5073393;28;20444;-74
2021/09/14 04:25:17;;;;;;;29.02;23.00;;;15.70;99.90;;;;;;5076222;28;20532;-74
2021/09/14 04:27:43;;;;;;;30.95;22.42;;;15.70;99.90;;;;;;5070652;28;20028;-74
2021/09/14 04:30:09;;;;;;;30.40;22.55;;;15.70;99.90;;;;;;5079597;28;20040;-75
2021/09/14 04:32:38;;;;;;;28.27;22.65;;;15.70;99.90;;;;;;5076280;28;20016;-74
2021/09/14 04:35:04;;;;;;;32.78;23.38;;;15.70;99.90;;;;;;5072311;28;20043;-74
2021/09/14 04:37:30;;;;;;;27.88;21.45;;;15.70;99.90;;;;;;5076854;28;20016;-75
2021/09/14 04:39:56;;;;;;;25.75;20.08;;;15.70;99.90;;;;;;5071009;28;20541;-74
2021/09/14 04:42:21;;;;;;;34.40;25.52;;;15.70;99.90;;;;;;5075480;28;20028;-74
2021/09/14 04:44:47;;;;;;;26.60;20.42;;;15.70;99.90;;;;;;5073120;28;20473;-75
2021/09/14 04:47:13;;;;;;;27.73;21.38;;;15.60;99.90;;;;;;5076518;28;20036;-74
2021/09/14 04:49:39;;;;;;;36.92;25.20;;;15.60;99.90;;;;;;5071284;28;20036;-74
2021/09/14 04:52:06;;;;;;;31.10;22.38;;;15.60;99.90;;;;;;5073269;28;20036;-75
2021/09/14 04:54:33;;;;;;;29.30;22.30;;;15.60;99.90;;;;;;5071781;28;20029;-74
2021/09/14 04:56:59;;;;;;;30.85;22.00;;;15.60;99.90;;;;;;5070817;28;20028;-75
2021/09/14 04:59:24;;;;;;;28.55;22.20;;;15.60;99.90;;;;;;5074881;28;20024;-75
2021/09/14 05:01:52;;;;;;;27.55;21.95;;;15.60;99.90;;;;;;5074506;28;20085;-75
2021/09/14 05:04:18;;;;;;;30.33;20.48;;;15.60;99.90;;;;;;5074680;28;20016;-75
2021/09/14 05:06:43;;;;;;;27.00;21.48;;;15.60;99.90;;;;;;5074041;28;20036;-74
2021/09/14 05:09:09;;;;;;;31.00;22.05;;;15.60;99.90;;;;;;5078081;28;20468;-74
2021/09/14 05:11:35;;;;;;;23.95;20.23;;;15.60;99.90;;;;;;5076956;28;20028;-74
2021/09/14 05:14:00;;;;;;;24.17;19.77;;;15.50;99.90;;;;;;5075571;28;20036;-74
2021/09/14 05:16:26;;;;;;;28.88;20.33;;;15.50;99.90;;;;;;5075749;28;20024;-74
2021/09/14 05:18:52;;;;;;;23.00;18.13;;;15.50;99.90;;;;;;5079213;28;20467;-74
2021/09/14 05:21:18;;;;;;;25.15;20.10;;;15.50;99.90;;;;;;5077649;28;20484;-74
2021/09/14 05:23:44;;;;;;;26.27;18.88;;;15.50;99.90;;;;;;5067901;28;20480;-74
2021/09/14 05:26:11;;;;;;;27.20;18.92;;;15.50;99.90;;;;;;5076159;28;20031;-74
2021/09/14 05:28:37;;;;;;;20.88;16.25;;;15.50;99.90;;;;;;5068608;28;20056;-74
2021/09/14 05:31:06;;;;;;;22.85;17.42;;;15.40;99.90;;;;;;5077349;28;20067;-74
2021/09/14 05:33:32;;;;;;;29.02;21.65;;;15.40;99.90;;;;;;5067054;28;20484;-74
2021/09/14 05:35:57;;;;;;;22.67;16.80;;;15.40;99.90;;;;;;5073998;28;20077;-74
2021/09/14 05:38:25;;;;;;;20.08;15.18;;;15.40;99.90;;;;;;5076204;28;20103;-74
2021/09/14 05:40:55;;;;;;;20.70;15.45;;;15.40;99.90;;;;;;5074982;28;20078;-74
2021/09/14 05:43:26;;;;;;;18.13;15.50;;;15.40;99.90;;;;;;5074412;28;20497;-74
2021/09/14 05:45:52;;;;;;;23.25;19.33;;;15.40;99.90;;;;;;5073673;28;20082;-74
2021/09/14 05:48:18;;;;;;;19.88;17.70;;;15.20;99.90;;;;;;5071113;28;20415;-74
2021/09/14 05:50:44;;;;;;;24.25;19.17;;;15.30;99.90;;;;;;5074757;28;20029;-74
2021/09/14 05:53:09;;;;;;;23.48;19.88;;;15.30;99.90;;;;;;5066229;28;20481;-74
2021/09/14 05:55:37;;;;;;;25.05;19.90;;;15.30;99.90;;;;;;5073904;28;20078;-72
2021/09/14 05:58:06;;;;;;;28.38;19.33;;;15.30;99.90;;;;;;5076135;28;20032;-74
2021/09/14 06:00:33;;;;;;;34.28;20.05;;;15.40;99.90;;;;;;5070979;28;20094;-74
2021/09/14 06:02:58;;;;;;;33.08;23.23;;;15.40;99.90;;;;;;5070930;28;20537;-74
2021/09/14 06:05:24;;;;;;;33.97;22.55;;;15.40;99.90;;;;;;5072133;28;20032;-74
2021/09/14 06:07:50;;;;;;;28.05;21.58;;;15.40;99.90;;;;;;5072082;28;20158;-74
2021/09/14 06:10:15;;;;;;;30.33;23.90;;;15.40;99.90;;;;;;5070410;28;20063;-74
2021/09/14 06:12:41;;;;;;;28.20;22.33;;;15.50;99.90;;;;;;5077993;28;20039;-74
2021/09/14 06:15:07;;;;;;;28.92;22.58;;;15.50;99.90;;;;;;5064808;28;20066;-74
2021/09/14 06:17:33;;;;;;;30.95;24.60;;;15.50;99.90;;;;;;5077291;28;20055;-74
2021/09/14 06:19:59;;;;;;;36.60;25.65;;;15.50;99.90;;;;;;5068509;28;20417;-74
2021/09/14 06:22:25;;;;;;;30.42;21.90;;;15.50;99.90;;;;;;5071214;28;20384;-74
2021/09/14 06:24:51;;;;;;;27.70;21.67;;;15.50;99.90;;;;;;5069534;28;20056;-74
2021/09/14 06:27:17;;;;;;;31.17;24.35;;;15.50;99.90;;;;;;5070367;28;20063;-74
2021/09/14 06:29:43;;;;;;;31.10;24.45;;;15.60;99.90;;;;;;5072494;28;20064;-74
2021/09/14 06:32:09;;;;;;;30.02;24.35;;;15.60;99.90;;;;;;5073947;28;20059;-74
2021/09/14 06:34:37;;;;;;;33.50;27.05;;;15.60;99.90;;;;;;5070404;28;20561;-74
2021/09/14 06:37:04;;;;;;;40.33;27.83;;;15.70;99.90;;;;;;5075398;28;20032;-75
2021/09/14 06:39:30;;;;;;;36.72;27.38;;;15.70;99.90;;;;;;5072584;28;20056;-79
2021/09/14 06:41:56;;;;;;;34.30;26.23;;;15.70;99.90;;;;;;5069453;28;20471;-83
2021/09/14 06:44:22;;;;;;;34.03;25.98;;;15.70;99.90;;;;;;5076927;28;20028;-75
2021/09/14 06:46:50;;;;;;;38.78;28.75;;;15.80;99.90;;;;;;5069139;28;20073;-84
2021/09/14 06:49:16;;;;;;;37.88;27.38;;;15.70;99.90;;;;;;5071618;28;20097;-75
2021/09/14 06:51:42;;;;;;;33.47;24.35;;;15.70;99.90;;;;;;5064732;28;20008;-80
2021/09/14 06:54:08;;;;;;;30.98;22.60;;;15.60;99.90;;;;;;5066411;28;20024;-74
2021/09/14 06:56:33;;;;;;;36.53;24.02;;;15.60;99.90;;;;;;5069649;28;20497;-74
2021/09/14 06:58:59;;;;;;;30.13;24.08;;;15.70;99.90;;;;;;5073541;28;20473;-76
2021/09/14 07:01:26;;;;;;;36.20;25.42;;;15.70;99.90;;;;;;5068513;28;20380;-75
2021/09/14 07:03:52;;;;;;;37.63;27.92;;;15.80;99.90;;;;;;5073032;28;20046;-75
2021/09/14 07:06:18;;;;;;;41.28;31.38;;;15.80;99.90;;;;;;5070832;28;20021;-75
2021/09/14 07:08:43;;;;;;;36.83;28.25;;;15.90;99.90;;;;;;5072623;28;20396;-78
2021/09/14 07:11:09;;;;;;;37.95;28.40;;;15.90;99.90;;;;;;5069081;28;20024;-77
2021/09/14 07:13:35;;;;;;;39.83;29.02;;;15.90;99.90;;;;;;5077677;28;20035;-76
2021/09/14 07:16:00;;;;;;;45.40;33.55;;;15.90;99.90;;;;;;5076649;28;20040;-76
2021/09/14 07:18:26;;;;;;;42.05;31.90;;;15.80;99.90;;;;;;5069382;28;20473;-76
2021/09/14 07:20:51;;;;;;;40.05;28.33;;;15.90;99.90;;;;;;5078268;28;20028;-76
2021/09/14 07:23:17;;;;;;;43.55;31.00;;;15.90;99.90;;;;;;5064211;28;20488;-75
2021/09/14 07:25:43;;;;;;;47.78;34.08;;;15.90;99.90;;;;;;5075649;28;20038;-76
2021/09/14 07:28:09;;;;;;;45.95;35.90;;;16.00;99.90;;;;;;5063706;28;20099;-77
2021/09/14 07:30:36;;;;;;;53.97;36.20;;;16.00;99.90;;;;;;5076836;28;20031;-75
2021/09/14 07:33:03;;;;;;;43.85;33.35;;;15.90;99.90;;;;;;5069368;28;20016;-76
2021/09/14 07:35:30;;;;;;;42.03;32.38;;;16.00;99.90;;;;;;5074226;28;20040;-74
2021/09/14 07:37:56;;;;;;;48.10;36.00;;;16.20;99.90;;;;;;5053543;28;20016;-74
2021/09/14 07:40:23;;;;;;;46.83;35.13;;;16.20;99.90;;;;;;5067564;28;20116;-75
2021/09/14 07:42:49;;;;;;;44.60;33.85;;;16.30;99.90;;;;;;5064146;28;20025;-74
2021/09/14 07:45:14;;;;;;;52.60;35.67;;;16.20;99.90;;;;;;5070890;28;20033;-74
2021/09/14 07:47:40;;;;;;;53.75;38.83;;;16.40;99.90;;;;;;5073933;28;20453;-74
2021/09/14 07:50:06;;;;;;;46.47;35.88;;;16.40;99.90;;;;;;5073430;28;20111;-74
2021/09/14 07:52:32;;;;;;;50.50;37.58;;;16.50;99.90;;;;;;5073800;28;20055;-74
2021/09/14 07:54:58;;;;;;;45.50;31.88;;;16.60;99.90;;;;;;5071435;28;20053;-74
2021/09/14 07:57:24;;;;;;;49.25;34.97;;;16.70;99.90;;;;;;5069551;28;20064;-74
2021/09/14 07:59:49;;;;;;;46.53;35.53;;;16.90;99.90;;;;;;5073292;28;20041;-74
2021/09/14 08:02:15;;;;;;;52.83;35.67;;;17.00;99.90;;;;;;5077081;28;20518;-74
2021/09/14 08:04:40;;;;;;;42.92;31.15;;;17.10;99.90;;;;;;5071375;28;20063;-74
2021/09/14 08:07:06;;;;;;;44.55;33.75;;;17.20;99.90;;;;;;5074565;28;20024;-74
2021/09/14 08:09:32;;;;;;;47.58;34.00;;;17.30;99.90;;;;;;5070024;28;20041;-74
2021/09/14 08:11:58;;;;;;;52.38;37.33;;;17.40;99.90;;;;;;5071277;28;20081;-74
2021/09/14 08:14:24;;;;;;;37.70;29.48;;;17.50;99.90;;;;;;5080121;28;20024;-74
2021/09/14 08:16:50;;;;;;;49.42;32.67;;;17.60;99.90;;;;;;5067121;28;20605;-74
2021/09/14 08:19:16;;;;;;;41.95;31.58;;;17.80;99.90;;;;;;5077348;28;20593;-77
2021/09/14 08:21:42;;;;;;;42.38;34.38;;;17.90;99.90;;;;;;5072189;28;20020;-77
2021/09/14 08:24:11;;;;;;;43.70;32.10;;;18.00;99.90;;;;;;5067054;28;20066;-78
2021/09/14 08:26:36;;;;;;;30.40;25.05;;;18.10;99.90;;;;;;5064816;28;20037;-77
2021/09/14 08:29:03;;;;;;;36.20;25.67;;;18.20;99.90;;;;;;5074080;28;20063;-77
2021/09/14 08:31:29;;;;;;;38.53;29.00;;;18.20;99.90;;;;;;5073415;28;20542;-77
2021/09/14 08:33:55;;;;;;;36.88;29.40;;;18.20;99.90;;;;;;5071482;28;20040;-75
2021/09/14 08:36:21;;;;;;;36.13;27.83;;;18.30;99.90;;;;;;5062940;28;20092;-77
2021/09/14 08:38:47;;;;;;;33.45;26.73;;;18.40;99.90;;;;;;5071366;28;20055;-77
2021/09/14 08:41:14;;;;;;;32.55;24.73;;;18.50;99.90;;;;;;5067210;28;20013;-77
2021/09/14 08:43:43;;;;;;;29.35;22.88;;;18.50;99.90;;;;;;5071102;28;20029;-77
2021/09/14 08:46:09;;;;;;;31.42;24.05;;;18.70;99.90;;;;;;5067093;28;20016;-77
2021/09/14 08:48:38;;;;;;;30.55;22.02;;;18.80;99.90;;;;;;5071058;28;20051;-76
2021/09/14 08:51:05;;;;;;;32.65;23.45;;;18.80;99.90;;;;;;5065599;28;20036;-77
2021/09/14 08:53:34;;;;;;;27.42;22.80;;;18.70;99.90;;;;;;5067969;28;20401;-77
2021/09/14 08:56:00;;;;;;;36.25;23.45;;;18.80;99.90;;;;;;5067240;28;20031;-77
2021/09/14 08:58:25;;;;;;;29.08;24.33;;;18.80;99.90;;;;;;5066814;28;20039;-74
2021/09/14 09:00:51;;;;;;;28.95;22.73;;;18.80;99.90;;;;;;5066578;28;20024;-77
2021/09/14 09:03:28;;;;;;;31.02;24.08;;;18.80;99.90;;;;;;5075900;28;20028;-77
2021/09/14 09:05:54;;;;;;;31.60;22.05;;;18.90;99.90;;;;;;5067753;28;20031;-76
2021/09/14 09:08:31;;;;;;;29.52;22.30;;;19.00;99.90;;;;;;5075861;28;20039;-77
2021/09/14 09:11:02;;;;;;;31.10;22.58;;;19.10;99.90;;;;;;5070349;28;20481;-77
2021/09/14 09:13:44;;;;;;;28.30;20.95;;;19.30;99.90;;;;;;5070227;28;20043;-77
2021/09/14 09:16:28;;;;;;;28.55;23.33;;;19.40;99.90;;;;;;5075140;28;20036;-77
2021/09/14 09:18:57;;;;;;;31.17;21.65;;;19.60;99.90;;;;;;5064633;28;20029;-77
2021/09/14 09:21:39;;;;;;;27.90;21.75;;;19.80;99.90;;;;;;5064789;28;20032;-76
2021/09/14 09:24:12;;;;;;;29.30;22.90;;;20.00;99.90;;;;;;5077096;28;20032;-77
2021/09/14 09:26:39;;;;;;;;;;;20.10;99.90;;;;;;5074759;28;20036;-77
2021/09/14 09:29:07;;;;;;;24.38;18.98;;;20.40;99.90;;;;;;5076202;28;19947;-77
2021/09/14 09:31:34;;;;;;;25.00;18.98;;;20.60;99.90;;;;;;5077753;28;20028;-77
2021/09/14 09:34:08;;;;;;;30.08;20.33;;;20.80;99.90;;;;;;5075492;28;20046;-77
2021/09/14 09:36:40;;;;;;;28.20;21.65;;;20.70;99.90;;;;;;5073794;28;20066;-77
2021/09/14 09:39:11;;;;;;;28.08;19.92;;;20.70;99.90;;;;;;5074904;28;20095;-77
2021/09/14 09:41:48;;;;;;;28.30;20.92;;;20.80;99.90;;;;;;5076075;28;20035;-77
2021/09/14 09:44:14;;;;;;;24.08;19.15;;;21.00;99.90;;;;;;5075884;28;20017;-77
2021/09/14 09:46:40;;;;;;;24.35;19.90;;;21.20;99.90;;;;;;5081348;28;20496;-77
2021/09/14 09:49:07;;;;;;;26.33;19.95;;;21.40;99.90;;;;;;5082768;28;20387;-77
2021/09/14 09:51:34;;;;;;;26.38;21.27;;;21.50;99.90;;;;;;5064876;28;20385;-78
2021/09/14 09:54:01;;;;;;;25.05;20.63;;;21.50;99.90;;;;;;5075914;28;20023;-77
2021/09/14 09:56:29;;;;;;;31.52;22.75;;;21.70;99.90;;;;;;5071944;28;20500;-76
2021/09/14 09:58:55;;;;;;;30.30;21.98;;;21.90;99.90;;;;;;5072740;28;20025;-77
2021/09/14 10:01:25;;;;;;;27.73;22.02;;;21.90;99.90;;;;;;5066930;28;20033;-76
2021/09/14 10:04:15;;;;;;;25.35;19.60;;;22.10;99.90;;;;;;5066551;28;20178;-77
2021/09/14 10:06:45;;;;;;;25.48;19.73;;;22.40;99.90;;;;;;5079211;28;20032;-76
2021/09/14 10:09:11;;;;;;;27.52;20.48;;;22.50;99.90;;;;;;5073895;28;20044;-77
2021/09/14 10:11:37;;;;;;;26.35;19.30;;;22.60;99.90;;;;;;5076469;28;20384;-77
2021/09/14 10:14:15;;;;;;;27.35;21.05;;;22.60;99.90;;;;;;5076846;28;20031;-77
2021/09/14 10:16:46;;;;;;;25.33;18.77;;;22.80;99.90;;;;;;5072040;28;20029;-77
2021/09/14 10:19:14;;;;;;;22.33;15.40;;;22.90;99.90;;;;;;5075116;28;20502;-77
2021/09/14 10:21:42;;;;;;;24.20;19.08;;;22.90;99.90;;;;;;5072298;28;20025;-77
2021/09/14 10:24:21;;;;;;;25.80;19.73;;;22.90;99.90;;;;;;5065025;28;20400;-77
2021/09/14 10:26:47;;;;;;;28.15;20.38;;;23.00;99.90;;;;;;5078043;28;20062;-77
2021/09/14 10:29:16;;;;;;;27.15;21.20;;;23.20;99.90;;;;;;5077067;28;20082;-77
2021/09/14 10:31:42;;;;;;;26.30;19.48;;;23.30;99.90;;;;;;5083555;28;20567;-77
2021/09/14 10:34:15;;;;;;;23.77;18.20;;;23.40;99.90;;;;;;5075196;28;20048;-77
2021/09/14 10:36:57;;;;;;;24.83;19.60;;;23.40;99.90;;;;;;5075233;28;20028;-77
2021/09/14 10:39:24;;;;;;;19.77;17.67;;;23.50;99.90;;;;;;5070391;28;20499;-76
2021/09/14 10:41:54;;;;;;;28.15;19.38;;;23.70;99.90;;;;;;5073571;28;20556;-77
2021/09/14 10:44:31;;;;;;;24.35;18.90;;;23.80;99.90;;;;;;5071323;28;20020;-78
2021/09/14 10:47:23;;;;;;;26.08;18.33;;;23.80;99.90;;;;;;5067401;28;20017;-77
2021/09/14 10:50:03;;;;;;;23.75;17.67;;;23.80;99.90;;;;;;5074686;28;20049;-76
2021/09/14 10:52:50;;;;;;;24.08;18.38;;;23.90;99.90;;;;;;5079036;28;20106;-77
2021/09/14 10:55:18;;;;;;;25.90;17.50;;;24.00;99.90;;;;;;5075043;28;20062;-77
2021/09/14 10:57:49;;;;;;;22.75;17.48;;;23.90;99.90;;;;;;5079697;28;20028;-78
2021/09/14 11:00:25;;;;;;;21.50;18.42;;;23.90;99.90;;;;;;5078383;28;20023;-78
2021/09/14 11:02:55;;;;;;;18.42;16.35;;;24.00;99.90;;;;;;5073722;28;20020;-78
2021/09/14 11:05:25;;;;;;;20.90;16.85;;;24.00;99.90;;;;;;5075269;28;20118;-77
2021/09/14 11:07:57;;;;;;;22.65;17.35;;;23.90;99.90;;;;;;5073267;28;20121;-78
2021/09/14 11:10:23;;;;;;;20.85;15.35;;;23.90;99.90;;;;;;5074245;28;20033;-78
2021/09/14 11:12:49;;;;;;;17.70;15.23;;;24.00;99.90;;;;;;5066169;28;20024;-78
2021/09/14 11:15:14;;;;;;;20.20;16.85;;;24.10;99.90;;;;;;5067478;28;20044;-78
2021/09/14 11:17:40;;;;;;;22.10;17.88;;;24.10;99.90;;;;;;5075527;28;20070;-77
2021/09/14 11:20:13;;;;;;;19.50;15.27;;;24.10;99.90;;;;;;5079168;28;20040;-78
2021/09/14 11:22:41;;;;;;;18.20;14.80;;;24.20;99.90;;;;;;5076877;28;20108;-78
2021/09/14 11:25:19;;;;;;;20.38;13.68;;;24.10;99.90;;;;;;5071995;28;20086;-76
2021/09/14 11:28:09;;;;;;;18.00;15.95;;;24.10;99.90;;;;;;5074708;28;20387;-78
2021/09/14 11:30:40;;;;;;;13.20;11.77;;;24.00;99.90;;;;;;5075047;28;20036;-75
2021/09/14 11:33:06;;;;;;;19.13;14.10;;;23.90;99.90;;;;;;5080780;28;20013;-78
2021/09/14 11:35:37;;;;;;;17.15;14.63;;;24.00;99.90;;;;;;5079612;28;20020;-76
2021/09/14 11:38:05;;;;;;;18.73;13.43;;;23.90;99.90;;;;;;5075282;28;20362;-77
2021/09/14 11:40:32;;;;;;;16.52;14.68;;;24.10;99.90;;;;;;5069062;28;20021;-78
2021/09/14 11:43:03;;;;;;;22.98;15.23;;;24.10;99.90;;;;;;5076177;28;20028;-78
2021/09/14 11:45:31;;;;;;;19.20;15.43;;;24.10;99.90;;;;;;5066802;28;20017;-78
2021/09/14 11:47:59;;;;;;;16.75;14.00;;;24.10;99.90;;;;;;5072460;28;20048;-77
2021/09/14 11:50:25;;;;;;;17.33;15.52;;;24.00;99.90;;;;;;5075083;28;20029;-76
2021/09/14 11:53:22;;;;;;;20.75;15.52;;;24.00;99.90;;;;;;5074234;28;20024;-79
2021/09/14 11:55:49;;;;;;;16.80;13.20;;;23.90;99.90;;;;;;5061286;28;20024;-78
2021/09/14 11:58:33;;;;;;;19.05;14.55;;;23.90;99.90;;;;;;5076857;28;20027;-78
2021/09/14 12:01:08;;;;;;;15.35;12.88;;;23.90;99.90;;;;;;5075169;28;20074;-78
2021/09/14 12:03:37;;;;;;;15.85;11.10;;;23.90;99.90;;;;;;5079146;28;20081;-78
2021/09/14 12:06:07;;;;;;;11.80;10.05;;;23.90;99.90;;;;;;5071865;28;20017;-77
2021/09/14 12:08:35;;;;;;;17.02;15.20;;;23.90;99.90;;;;;;5071285;28;20384;-78
2021/09/14 12:11:03;;;;;;;14.05;10.23;;;23.90;99.90;;;;;;5072311;28;20221;-78
2021/09/14 12:13:43;;;;;;;16.33;13.35;;;23.90;99.90;;;;;;5068673;28;20023;-78
2021/09/14 12:16:23;;;;;;;16.25;12.73;;;23.90;99.90;;;;;;5069702;28;20095;-78
2021/09/14 12:18:49;;;;;;;17.30;11.93;;;23.90;99.90;;;;;;5071256;28;20077;-78
2021/09/14 12:21:15;;;;;;;15.13;12.30;;;23.90;99.90;;;;;;5077444;28;20369;-78
2021/09/14 12:23:41;;;;;;;16.95;12.52;;;23.90;99.90;;;;;;5072182;28;20060;-78
2021/09/14 12:26:40;;;;;;;13.73;11.40;;;23.80;99.90;;;;;;5072567;28;20067;-77
2021/09/14 12:29:08;;;;;;;16.35;12.52;;;23.70;99.90;;;;;;5061327;28;20555;-78
2021/09/14 12:31:34;;;;;;;18.08;13.32;;;23.80;99.90;;;;;;5060304;28;20579;-78
2021/09/14 12:34:00;;;;;;;14.82;11.30;;;23.80;99.90;;;;;;5068981;28;20103;-78
2021/09/14 12:36:26;;;;;;;14.45;12.65;;;23.70;99.90;;;;;;5068775;28;20109;-78
2021/09/14 12:38:52;;;;;;;17.45;14.52;;;23.80;99.90;;;;;;5063630;28;20078;-78
2021/09/14 12:41:18;;;;;;;17.65;13.27;;;23.70;99.90;;;;;;5069338;28;20048;-78
2021/09/14 12:43:46;;;;;;;14.23;12.32;;;23.70;99.90;;;;;;5080342;28;20481;-78
2021/09/14 12:46:12;;;;;;;14.80;11.02;;;23.60;99.90;;;;;;5075686;28;20047;-78
2021/09/14 12:48:38;;;;;;;13.45;10.13;;;23.60;99.90;;;;;;5075098;28;20488;-77
2021/09/14 12:51:04;;;;;;;15.63;13.23;;;23.50;99.90;;;;;;5078095;28;20032;-77
2021/09/14 12:53:30;;;;;;;16.42;12.13;;;23.60;99.90;;;;;;5064877;28;20466;-78
2021/09/14 12:55:56;;;;;;;13.63;12.13;;;23.60;99.90;;;;;;5072669;28;20040;-75
2021/09/14 12:58:22;;;;;;;13.73;11.88;;;23.60;99.90;;;;;;5070791;28;20029;-78
2021/09/14 13:00:48;;;;;;;11.93;10.60;;;23.60;99.90;;;;;;5067756;28;20388;-77
2021/09/14 13:03:14;;;;;;;14.45;10.95;;;23.50;99.90;;;;;;5074559;28;20103;-78
2021/09/14 13:05:41;;;;;;;12.50;11.13;;;23.50;99.90;;;;;;5071535;28;20025;-76
2021/09/14 13:08:07;;;;;;;13.55;11.10;;;23.60;99.90;;;;;;5066474;28;20024;-77
2021/09/14 13:10:33;;;;;;;16.10;14.43;;;23.50;99.90;;;;;;5065186;28;20074;-77
2021/09/14 13:18:29;;;;;;;15.02;11.95;;;23.30;99.90;;;;;;5074004;28;20062;-77
2021/09/14 13:20:55;;;;;;;14.32;12.43;;;23.30;99.90;;;;;;5075944;28;20064;-77
2021/09/14 13:23:21;;;;;;;17.15;11.80;;;23.20;99.90;;;;;;5085543;28;20677;-77
2021/09/14 13:25:47;;;;;;;14.20;12.75;;;23.20;99.90;;;;;;5075408;28;20103;-78
2021/09/14 13:28:12;;;;;;;17.55;14.80;;;23.20;99.90;;;;;;5074071;28;20278;-76
2021/09/14 13:30:38;;;;;;;16.38;14.68;;;23.00;99.90;;;;;;5075238;28;20062;-77
2021/09/14 13:33:05;;;;;;;16.25;13.48;;;23.00;99.90;;;;;;5070546;28;20106;-76